sensor_id;sensor_type;location;lat;lon;timestamp;P1;durP1;ratioP1;P2;durP2;ratioP2
46308;SDS011;32037;50.820;6.494;2023-06-10T00:00:34;5.50;;;5.10;;
46308;SDS011;32037;50.820;6.494;2023-06-10T00:03:02;5.47;;;5.07;;
46308;SDS011;32037;50.820;6.494;2023-06-10T00:05:31;6.17;;;5.77;;
46308;SDS011;32037;50.820;6.494;2023-06-10T00:08:01;5.80;;;5.40;;
46308;SDS011;32037;50.820;6.494;2023-06-10T00:10:34;6.03;;;5.63;;
46308;SDS011;32037;50.820;6.494;2023-06-10T00:13:04;5.53;;;5.23;;
46308;SDS011;32037;50.820;6.494;2023-06-10T00:15:35;6.10;;;5.60;;
46308;SDS011;32037;50.820;6.494;2023-06-10T00:18:04;6.20;;;5.80;;
46308;SDS011;32037;50.820;6.494;2023-06-10T00:20:32;6.33;;;5.90;;
46308;SDS011;32037;50.820;6.494;2023-06-10T00:23:04;6.30;;;5.70;;
46308;SDS011;32037;50.820;6.494;2023-06-10T00:25:35;6.37;;;5.97;;
46308;SDS011;32037;50.820;6.494;2023-06-10T00:28:04;6.03;;;5.53;;
46308;SDS011;32037;50.820;6.494;2023-06-10T00:30:33;6.37;;;5.97;;
46308;SDS011;32037;50.820;6.494;2023-06-10T00:33:01;6.03;;;5.53;;
46308;SDS011;32037;50.820;6.494;2023-06-10T00:35:30;5.63;;;5.23;;
46308;SDS011;32037;50.820;6.494;2023-06-10T00:37:59;6.50;;;5.87;;
46308;SDS011;32037;50.820;6.494;2023-06-10T00:40:27;6.00;;;5.50;;
46308;SDS011;32037;50.820;6.494;2023-06-10T00:42:57;6.13;;;5.73;;
46308;SDS011;32037;50.820;6.494;2023-06-10T00:45:27;5.73;;;5.33;;
46308;SDS011;32037;50.820;6.494;2023-06-10T00:47:57;6.50;;;5.93;;
46308;SDS011;32037;50.820;6.494;2023-06-10T00:50:26;5.97;;;5.57;;
46308;SDS011;32037;50.820;6.494;2023-06-10T00:52:54;6.30;;;5.80;;
46308;SDS011;32037;50.820;6.494;2023-06-10T00:55:24;6.10;;;5.70;;
46308;SDS011;32037;50.820;6.494;2023-06-10T00:57:53;6.63;;;6.13;;
46308;SDS011;32037;50.820;6.494;2023-06-10T01:00:22;6.30;;;5.80;;
46308;SDS011;32037;50.820;6.494;2023-06-10T01:02:52;5.80;;;5.40;;
46308;SDS011;32037;50.820;6.494;2023-06-10T01:05:20;6.73;;;6.30;;
46308;SDS011;32037;50.820;6.494;2023-06-10T01:07:53;6.80;;;6.30;;
46308;SDS011;32037;50.820;6.494;2023-06-10T01:10:29;6.37;;;5.87;;
46308;SDS011;32037;50.820;6.494;2023-06-10T01:13:05;5.90;;;5.50;;
46308;SDS011;32037;50.820;6.494;2023-06-10T01:15:35;7.30;;;6.70;;
46308;SDS011;32037;50.820;6.494;2023-06-10T01:18:05;7.50;;;6.80;;
46308;SDS011;32037;50.820;6.494;2023-06-10T01:20:36;6.90;;;6.33;;
46308;SDS011;32037;50.820;6.494;2023-06-10T01:23:08;5.93;;;5.43;;
46308;SDS011;32037;50.820;6.494;2023-06-10T01:25:38;6.00;;;5.60;;
46308;SDS011;32037;50.820;6.494;2023-06-10T01:28:12;7.40;;;6.80;;
46308;SDS011;32037;50.820;6.494;2023-06-10T01:30:45;6.23;;;5.73;;
46308;SDS011;32037;50.820;6.494;2023-06-10T01:33:18;5.43;;;5.13;;
46308;SDS011;32037;50.820;6.494;2023-06-10T01:35:55;5.93;;;5.50;;
46308;SDS011;32037;50.820;6.494;2023-06-10T01:38:26;6.33;;;5.93;;
46308;SDS011;32037;50.820;6.494;2023-06-10T01:40:58;6.20;;;5.80;;
46308;SDS011;32037;50.820;6.494;2023-06-10T01:43:27;6.80;;;6.30;;
46308;SDS011;32037;50.820;6.494;2023-06-10T01:45:56;6.13;;;5.63;;
46308;SDS011;32037;50.820;6.494;2023-06-10T01:48:24;6.50;;;6.00;;
46308;SDS011;32037;50.820;6.494;2023-06-10T01:50:52;6.10;;;5.70;;
46308;SDS011;32037;50.820;6.494;2023-06-10T01:53:22;6.40;;;6.00;;
46308;SDS011;32037;50.820;6.494;2023-06-10T01:55:54;6.43;;;5.93;;
46308;SDS011;32037;50.820;6.494;2023-06-10T01:58:22;5.70;;;5.30;;
46308;SDS011;32037;50.820;6.494;2023-06-10T02:00:51;6.00;;;5.50;;
46308;SDS011;32037;50.820;6.494;2023-06-10T02:03:19;6.70;;;6.20;;
46308;SDS011;32037;50.820;6.494;2023-06-10T02:05:48;6.00;;;5.60;;
46308;SDS011;32037;50.820;6.494;2023-06-10T02:08:17;6.63;;;6.13;;
46308;SDS011;32037;50.820;6.494;2023-06-10T02:10:46;6.47;;;5.97;;
46308;SDS011;32037;50.820;6.494;2023-06-10T02:13:16;6.03;;;5.63;;
46308;SDS011;32037;50.820;6.494;2023-06-10T02:15:45;6.77;;;6.27;;
46308;SDS011;32037;50.820;6.494;2023-06-10T02:18:13;6.40;;;6.00;;
46308;SDS011;32037;50.820;6.494;2023-06-10T02:20:42;6.70;;;6.17;;
46308;SDS011;32037;50.820;6.494;2023-06-10T02:23:10;6.93;;;6.43;;
46308;SDS011;32037;50.820;6.494;2023-06-10T02:25:39;7.13;;;6.53;;
46308;SDS011;32037;50.820;6.494;2023-06-10T02:28:07;6.57;;;6.10;;
46308;SDS011;32037;50.820;6.494;2023-06-10T02:30:40;6.67;;;6.17;;
46308;SDS011;32037;50.820;6.494;2023-06-10T02:33:09;6.70;;;6.20;;
46308;SDS011;32037;50.820;6.494;2023-06-10T02:35:38;5.73;;;5.33;;
46308;SDS011;32037;50.820;6.494;2023-06-10T02:38:06;5.90;;;5.50;;
46308;SDS011;32037;50.820;6.494;2023-06-10T02:40:35;7.23;;;6.57;;
46308;SDS011;32037;50.820;6.494;2023-06-10T02:43:04;6.87;;;6.47;;
46308;SDS011;32037;50.820;6.494;2023-06-10T02:45:32;6.97;;;6.47;;
46308;SDS011;32037;50.820;6.494;2023-06-10T02:48:04;6.37;;;5.87;;
46308;SDS011;32037;50.820;6.494;2023-06-10T02:50:33;6.67;;;6.17;;
46308;SDS011;32037;50.820;6.494;2023-06-10T02:53:23;6.97;;;6.47;;
46308;SDS011;32037;50.820;6.494;2023-06-10T02:55:58;6.67;;;6.17;;
46308;SDS011;32037;50.820;6.494;2023-06-10T02:58:26;6.57;;;6.17;;
46308;SDS011;32037;50.820;6.494;2023-06-10T03:00:55;7.70;;;5.70;;
46308;SDS011;32037;50.820;6.494;2023-06-10T03:03:28;6.17;;;5.67;;
46308;SDS011;32037;50.820;6.494;2023-06-10T03:06:03;6.13;;;5.73;;
46308;SDS011;32037;50.820;6.494;2023-06-10T03:08:33;5.70;;;5.30;;
46308;SDS011;32037;50.820;6.494;2023-06-10T03:11:06;6.80;;;5.77;;
46308;SDS011;32037;50.820;6.494;2023-06-10T03:13:37;6.73;;;6.23;;
46308;SDS011;32037;50.820;6.494;2023-06-10T03:16:09;6.37;;;5.90;;
46308;SDS011;32037;50.820;6.494;2023-06-10T03:18:41;6.17;;;5.77;;
46308;SDS011;32037;50.820;6.494;2023-06-10T03:21:09;6.33;;;5.93;;
46308;SDS011;32037;50.820;6.494;2023-06-10T03:23:38;6.40;;;6.00;;
46308;SDS011;32037;50.820;6.494;2023-06-10T03:26:07;6.53;;;6.03;;
46308;SDS011;32037;50.820;6.494;2023-06-10T03:28:39;6.90;;;6.30;;
46308;SDS011;32037;50.820;6.494;2023-06-10T03:31:08;6.47;;;5.87;;
46308;SDS011;32037;50.820;6.494;2023-06-10T03:33:37;5.93;;;5.53;;
46308;SDS011;32037;50.820;6.494;2023-06-10T03:36:07;5.70;;;5.40;;
46308;SDS011;32037;50.820;6.494;2023-06-10T03:38:36;5.77;;;5.37;;
46308;SDS011;32037;50.820;6.494;2023-06-10T03:41:06;6.03;;;5.53;;
46308;SDS011;32037;50.820;6.494;2023-06-10T03:43:38;5.67;;;5.37;;
46308;SDS011;32037;50.820;6.494;2023-06-10T03:46:07;5.70;;;5.40;;
46308;SDS011;32037;50.820;6.494;2023-06-10T03:48:37;6.40;;;5.90;;
46308;SDS011;32037;50.820;6.494;2023-06-10T03:51:07;6.40;;;5.90;;
46308;SDS011;32037;50.820;6.494;2023-06-10T03:53:36;5.57;;;5.13;;
46308;SDS011;32037;50.820;6.494;2023-06-10T03:56:05;6.60;;;6.00;;
46308;SDS011;32037;50.820;6.494;2023-06-10T03:58:33;6.27;;;5.77;;
46308;SDS011;32037;50.820;6.494;2023-06-10T04:01:05;5.83;;;5.43;;
46308;SDS011;32037;50.820;6.494;2023-06-10T04:03:35;6.33;;;5.90;;
46308;SDS011;32037;50.820;6.494;2023-06-10T04:06:03;5.90;;;5.50;;
46308;SDS011;32037;50.820;6.494;2023-06-10T04:08:33;5.77;;;5.37;;
46308;SDS011;32037;50.820;6.494;2023-06-10T04:11:02;6.33;;;5.83;;
46308;SDS011;32037;50.820;6.494;2023-06-10T04:13:30;6.43;;;5.93;;
46308;SDS011;32037;50.820;6.494;2023-06-10T04:15:59;5.90;;;5.50;;
46308;SDS011;32037;50.820;6.494;2023-06-10T04:18:29;5.30;;;4.90;;
46308;SDS011;32037;50.820;6.494;2023-06-10T04:21:02;6.03;;;5.63;;
46308;SDS011;32037;50.820;6.494;2023-06-10T04:23:32;5.90;;;5.50;;
46308;SDS011;32037;50.820;6.494;2023-06-10T04:26:03;6.00;;;5.60;;
46308;SDS011;32037;50.820;6.494;2023-06-10T04:28:32;5.97;;;5.57;;
46308;SDS011;32037;50.820;6.494;2023-06-10T04:31:00;6.03;;;5.63;;
46308;SDS011;32037;50.820;6.494;2023-06-10T04:33:31;5.87;;;5.47;;
46308;SDS011;32037;50.820;6.494;2023-06-10T04:36:01;7.20;;;6.70;;
46308;SDS011;32037;50.820;6.494;2023-06-10T04:38:30;6.07;;;5.57;;
46308;SDS011;32037;50.820;6.494;2023-06-10T04:41:01;6.33;;;5.83;;
46308;SDS011;32037;50.820;6.494;2023-06-10T04:43:33;5.67;;;5.27;;
46308;SDS011;32037;50.820;6.494;2023-06-10T04:46:03;6.10;;;5.70;;
46308;SDS011;32037;50.820;6.494;2023-06-10T04:48:35;6.30;;;5.70;;
46308;SDS011;32037;50.820;6.494;2023-06-10T04:51:03;6.20;;;5.80;;
46308;SDS011;32037;50.820;6.494;2023-06-10T04:53:32;6.13;;;5.73;;
46308;SDS011;32037;50.820;6.494;2023-06-10T04:56:02;6.03;;;5.63;;
46308;SDS011;32037;50.820;6.494;2023-06-10T04:58:31;6.60;;;6.00;;
46308;SDS011;32037;50.820;6.494;2023-06-10T05:00:59;6.30;;;5.80;;
46308;SDS011;32037;50.820;6.494;2023-06-10T05:03:28;5.93;;;5.53;;
46308;SDS011;32037;50.820;6.494;2023-06-10T05:05:57;5.97;;;5.57;;
46308;SDS011;32037;50.820;6.494;2023-06-10T05:08:25;5.70;;;5.27;;
46308;SDS011;32037;50.820;6.494;2023-06-10T05:10:54;6.80;;;6.30;;
46308;SDS011;32037;50.820;6.494;2023-06-10T05:13:23;6.63;;;6.23;;
46308;SDS011;32037;50.820;6.494;2023-06-10T05:15:52;6.40;;;5.90;;
46308;SDS011;32037;50.820;6.494;2023-06-10T05:18:20;7.57;;;7.07;;
46308;SDS011;32037;50.820;6.494;2023-06-10T05:20:49;6.90;;;6.40;;
46308;SDS011;32037;50.820;6.494;2023-06-10T05:23:18;6.67;;;6.17;;
46308;SDS011;32037;50.820;6.494;2023-06-10T05:25:46;6.53;;;6.13;;
46308;SDS011;32037;50.820;6.494;2023-06-10T05:28:14;6.53;;;6.10;;
46308;SDS011;32037;50.820;6.494;2023-06-10T05:30:44;6.30;;;5.90;;
46308;SDS011;32037;50.820;6.494;2023-06-10T05:33:12;7.20;;;6.60;;
46308;SDS011;32037;50.820;6.494;2023-06-10T05:35:41;6.77;;;6.17;;
46308;SDS011;32037;50.820;6.494;2023-06-10T05:38:09;7.00;;;6.40;;
46308;SDS011;32037;50.820;6.494;2023-06-10T05:40:38;6.97;;;6.37;;
46308;SDS011;32037;50.820;6.494;2023-06-10T05:43:06;6.80;;;6.30;;
46308;SDS011;32037;50.820;6.494;2023-06-10T05:45:36;5.10;;;4.70;;
46308;SDS011;32037;50.820;6.494;2023-06-10T05:48:08;6.17;;;5.77;;
46308;SDS011;32037;50.820;6.494;2023-06-10T05:50:37;6.80;;;6.20;;
46308;SDS011;32037;50.820;6.494;2023-06-10T05:53:06;7.40;;;6.30;;
46308;SDS011;32037;50.820;6.494;2023-06-10T05:55:42;6.60;;;6.10;;
46308;SDS011;32037;50.820;6.494;2023-06-10T05:58:11;5.90;;;5.50;;
46308;SDS011;32037;50.820;6.494;2023-06-10T06:00:40;6.60;;;6.10;;
46308;SDS011;32037;50.820;6.494;2023-06-10T06:03:10;6.50;;;6.00;;
46308;SDS011;32037;50.820;6.494;2023-06-10T06:05:39;7.27;;;6.77;;
46308;SDS011;32037;50.820;6.494;2023-06-10T06:08:07;7.03;;;6.53;;
46308;SDS011;32037;50.820;6.494;2023-06-10T06:10:36;5.80;;;5.40;;
46308;SDS011;32037;50.820;6.494;2023-06-10T06:13:04;6.10;;;5.70;;
46308;SDS011;32037;50.820;6.494;2023-06-10T06:15:32;7.13;;;6.60;;
46308;SDS011;32037;50.820;6.494;2023-06-10T06:18:00;6.43;;;5.93;;
46308;SDS011;32037;50.820;6.494;2023-06-10T06:20:30;6.77;;;6.27;;
46308;SDS011;32037;50.820;6.494;2023-06-10T06:22:58;10.40;;;9.23;;
46308;SDS011;32037;50.820;6.494;2023-06-10T06:25:27;10.80;;;9.80;;
46308;SDS011;32037;50.820;6.494;2023-06-10T06:27:55;10.50;;;9.60;;
46308;SDS011;32037;50.820;6.494;2023-06-10T06:30:23;10.80;;;9.77;;
46308;SDS011;32037;50.820;6.494;2023-06-10T06:32:53;11.30;;;10.30;;
46308;SDS011;32037;50.820;6.494;2023-06-10T06:35:22;11.10;;;10.20;;
46308;SDS011;32037;50.820;6.494;2023-06-10T06:37:51;9.80;;;9.00;;
46308;SDS011;32037;50.820;6.494;2023-06-10T06:40:24;10.40;;;9.60;;
46308;SDS011;32037;50.820;6.494;2023-06-10T06:42:53;10.57;;;9.70;;
46308;SDS011;32037;50.820;6.494;2023-06-10T06:45:40;10.60;;;9.70;;
46308;SDS011;32037;50.820;6.494;2023-06-10T06:48:08;10.87;;;9.93;;
46308;SDS011;32037;50.820;6.494;2023-06-10T06:50:37;10.80;;;9.90;;
46308;SDS011;32037;50.820;6.494;2023-06-10T06:53:06;10.23;;;9.50;;
46308;SDS011;32037;50.820;6.494;2023-06-10T06:55:35;10.20;;;9.40;;
46308;SDS011;32037;50.820;6.494;2023-06-10T06:58:04;12.90;;;10.40;;
46308;SDS011;32037;50.820;6.494;2023-06-10T07:00:32;9.77;;;9.03;;
46308;SDS011;32037;50.820;6.494;2023-06-10T07:03:00;11.87;;;10.70;;
46308;SDS011;32037;50.820;6.494;2023-06-10T07:05:29;9.90;;;9.07;;
46308;SDS011;32037;50.820;6.494;2023-06-10T07:07:58;10.77;;;9.87;;
46308;SDS011;32037;50.820;6.494;2023-06-10T07:10:28;14.40;;;9.60;;
46308;SDS011;32037;50.820;6.494;2023-06-10T07:12:57;10.10;;;9.20;;
46308;SDS011;32037;50.820;6.494;2023-06-10T07:15:25;10.30;;;9.40;;
46308;SDS011;32037;50.820;6.494;2023-06-10T07:17:54;9.80;;;9.00;;
46308;SDS011;32037;50.820;6.494;2023-06-10T07:20:23;10.97;;;9.90;;
46308;SDS011;32037;50.820;6.494;2023-06-10T07:22:51;10.50;;;9.60;;
46308;SDS011;32037;50.820;6.494;2023-06-10T07:25:20;9.70;;;8.57;;
46308;SDS011;32037;50.820;6.494;2023-06-10T07:27:50;8.70;;;8.00;;
46308;SDS011;32037;50.820;6.494;2023-06-10T07:30:18;9.67;;;8.97;;
46308;SDS011;32037;50.820;6.494;2023-06-10T07:32:47;10.20;;;9.30;;
46308;SDS011;32037;50.820;6.494;2023-06-10T07:35:15;10.37;;;9.47;;
46308;SDS011;32037;50.820;6.494;2023-06-10T07:37:44;9.87;;;8.87;;
46308;SDS011;32037;50.820;6.494;2023-06-10T07:40:13;9.03;;;8.43;;
46308;SDS011;32037;50.820;6.494;2023-06-10T07:42:41;10.47;;;9.57;;
46308;SDS011;32037;50.820;6.494;2023-06-10T07:45:11;9.60;;;8.90;;
46308;SDS011;32037;50.820;6.494;2023-06-10T07:47:40;9.03;;;8.33;;
46308;SDS011;32037;50.820;6.494;2023-06-10T07:50:10;9.73;;;8.93;;
46308;SDS011;32037;50.820;6.494;2023-06-10T07:52:39;9.70;;;9.00;;
46308;SDS011;32037;50.820;6.494;2023-06-10T07:55:07;9.83;;;9.03;;
46308;SDS011;32037;50.820;6.494;2023-06-10T07:57:36;9.13;;;8.43;;
46308;SDS011;32037;50.820;6.494;2023-06-10T08:00:06;8.57;;;7.97;;
46308;SDS011;32037;50.820;6.494;2023-06-10T08:02:39;8.93;;;8.23;;
46308;SDS011;32037;50.820;6.494;2023-06-10T08:05:08;8.40;;;7.80;;
46308;SDS011;32037;50.820;6.494;2023-06-10T08:07:37;8.90;;;8.20;;
46308;SDS011;32037;50.820;6.494;2023-06-10T08:10:05;9.17;;;8.37;;
46308;SDS011;32037;50.820;6.494;2023-06-10T08:12:35;8.03;;;7.43;;
46308;SDS011;32037;50.820;6.494;2023-06-10T08:15:04;8.13;;;7.43;;
46308;SDS011;32037;50.820;6.494;2023-06-10T08:17:34;8.00;;;7.40;;
46308;SDS011;32037;50.820;6.494;2023-06-10T08:20:04;8.50;;;7.80;;
46308;SDS011;32037;50.820;6.494;2023-06-10T08:22:34;8.10;;;7.50;;
46308;SDS011;32037;50.820;6.494;2023-06-10T08:25:03;8.13;;;7.53;;
46308;SDS011;32037;50.820;6.494;2023-06-10T08:27:32;8.27;;;7.57;;
46308;SDS011;32037;50.820;6.494;2023-06-10T08:30:02;8.10;;;7.50;;
46308;SDS011;32037;50.820;6.494;2023-06-10T08:32:31;8.57;;;7.97;;
46308;SDS011;32037;50.820;6.494;2023-06-10T08:35:00;8.50;;;7.90;;
46308;SDS011;32037;50.820;6.494;2023-06-10T08:37:29;7.60;;;7.00;;
46308;SDS011;32037;50.820;6.494;2023-06-10T08:39:58;8.10;;;7.50;;
46308;SDS011;32037;50.820;6.494;2023-06-10T08:42:28;8.03;;;7.43;;
46308;SDS011;32037;50.820;6.494;2023-06-10T08:45:02;7.90;;;7.30;;
46308;SDS011;32037;50.820;6.494;2023-06-10T08:47:33;8.13;;;7.53;;
46308;SDS011;32037;50.820;6.494;2023-06-10T08:50:05;7.93;;;7.30;;
46308;SDS011;32037;50.820;6.494;2023-06-10T08:52:40;7.70;;;7.10;;
46308;SDS011;32037;50.820;6.494;2023-06-10T08:55:12;8.17;;;7.57;;
46308;SDS011;32037;50.820;6.494;2023-06-10T08:57:44;7.70;;;7.13;;
46308;SDS011;32037;50.820;6.494;2023-06-10T09:00:14;7.83;;;7.33;;
46308;SDS011;32037;50.820;6.494;2023-06-10T09:02:44;7.77;;;7.17;;
46308;SDS011;32037;50.820;6.494;2023-06-10T09:05:13;8.50;;;7.90;;
46308;SDS011;32037;50.820;6.494;2023-06-10T09:07:43;7.87;;;7.27;;
46308;SDS011;32037;50.820;6.494;2023-06-10T09:10:13;7.00;;;6.50;;
46308;SDS011;32037;50.820;6.494;2023-06-10T09:12:42;7.70;;;7.00;;
46308;SDS011;32037;50.820;6.494;2023-06-10T09:15:11;8.00;;;7.40;;
46308;SDS011;32037;50.820;6.494;2023-06-10T09:17:41;7.70;;;7.07;;
46308;SDS011;32037;50.820;6.494;2023-06-10T09:20:10;7.27;;;6.77;;
46308;SDS011;32037;50.820;6.494;2023-06-10T09:22:40;8.67;;;7.97;;
46308;SDS011;32037;50.820;6.494;2023-06-10T09:25:11;7.73;;;7.13;;
46308;SDS011;32037;50.820;6.494;2023-06-10T09:27:44;7.80;;;7.20;;
46308;SDS011;32037;50.820;6.494;2023-06-10T09:30:26;7.37;;;6.83;;
46308;SDS011;32037;50.820;6.494;2023-06-10T09:32:56;7.70;;;7.10;;
46308;SDS011;32037;50.820;6.494;2023-06-10T09:35:27;7.93;;;7.33;;
46308;SDS011;32037;50.820;6.494;2023-06-10T09:37:59;8.13;;;7.53;;
46308;SDS011;32037;50.820;6.494;2023-06-10T09:40:29;8.00;;;7.30;;
46308;SDS011;32037;50.820;6.494;2023-06-10T09:42:59;7.83;;;7.23;;
46308;SDS011;32037;50.820;6.494;2023-06-10T09:45:29;7.53;;;7.03;;
46308;SDS011;32037;50.820;6.494;2023-06-10T09:47:59;8.13;;;7.30;;
46308;SDS011;32037;50.820;6.494;2023-06-10T09:50:29;7.43;;;6.90;;
46308;SDS011;32037;50.820;6.494;2023-06-10T09:53:03;7.60;;;7.10;;
46308;SDS011;32037;50.820;6.494;2023-06-10T09:55:35;8.57;;;7.80;;
46308;SDS011;32037;50.820;6.494;2023-06-10T09:58:05;8.63;;;7.93;;
46308;SDS011;32037;50.820;6.494;2023-06-10T10:00:34;10.37;;;9.57;;
46308;SDS011;32037;50.820;6.494;2023-06-10T10:03:04;9.37;;;8.43;;
46308;SDS011;32037;50.820;6.494;2023-06-10T10:05:33;10.23;;;9.23;;
46308;SDS011;32037;50.820;6.494;2023-06-10T10:08:04;8.97;;;8.10;;
46308;SDS011;32037;50.820;6.494;2023-06-10T10:10:32;9.80;;;9.00;;
46308;SDS011;32037;50.820;6.494;2023-06-10T10:13:01;8.97;;;8.07;;
46308;SDS011;32037;50.820;6.494;2023-06-10T10:15:31;10.33;;;9.20;;
46308;SDS011;32037;50.820;6.494;2023-06-10T10:18:05;9.90;;;9.00;;
46308;SDS011;32037;50.820;6.494;2023-06-10T10:20:37;10.23;;;9.23;;
46308;SDS011;32037;50.820;6.494;2023-06-10T10:23:15;9.57;;;8.67;;
46308;SDS011;32037;50.820;6.494;2023-06-10T10:25:49;9.23;;;8.43;;
46308;SDS011;32037;50.820;6.494;2023-06-10T10:28:21;9.10;;;8.40;;
46308;SDS011;32037;50.820;6.494;2023-06-10T10:30:54;8.53;;;7.77;;
46308;SDS011;32037;50.820;6.494;2023-06-10T10:33:33;8.23;;;7.70;;
46308;SDS011;32037;50.820;6.494;2023-06-10T10:36:08;9.30;;;8.40;;
46308;SDS011;32037;50.820;6.494;2023-06-10T10:38:38;9.07;;;8.33;;
46308;SDS011;32037;50.820;6.494;2023-06-10T10:41:07;10.57;;;9.57;;
46308;SDS011;32037;50.820;6.494;2023-06-10T10:43:37;10.63;;;9.43;;
46308;SDS011;32037;50.820;6.494;2023-06-10T10:46:08;15.23;;;9.27;;
46308;SDS011;32037;50.820;6.494;2023-06-10T10:48:40;10.43;;;9.53;;
46308;SDS011;32037;50.820;6.494;2023-06-10T10:51:09;10.53;;;9.50;;
46308;SDS011;32037;50.820;6.494;2023-06-10T10:53:39;9.67;;;8.83;;
46308;SDS011;32037;50.820;6.494;2023-06-10T10:56:12;9.50;;;8.70;;
46308;SDS011;32037;50.820;6.494;2023-06-10T10:58:42;9.67;;;8.83;;
46308;SDS011;32037;50.820;6.494;2023-06-10T11:01:11;9.23;;;8.53;;
46308;SDS011;32037;50.820;6.494;2023-06-10T11:03:44;9.63;;;8.63;;
46308;SDS011;32037;50.820;6.494;2023-06-10T11:06:14;8.77;;;7.97;;
46308;SDS011;32037;50.820;6.494;2023-06-10T11:08:48;9.70;;;8.37;;
46308;SDS011;32037;50.820;6.494;2023-06-10T11:11:18;10.63;;;9.00;;
46308;SDS011;32037;50.820;6.494;2023-06-10T11:13:57;8.37;;;7.73;;
46308;SDS011;32037;50.820;6.494;2023-06-10T11:16:37;9.60;;;8.80;;
46308;SDS011;32037;50.820;6.494;2023-06-10T11:19:07;8.53;;;7.90;;
46308;SDS011;32037;50.820;6.494;2023-06-10T11:21:37;9.23;;;8.53;;
46308;SDS011;32037;50.820;6.494;2023-06-10T11:24:29;10.10;;;7.77;;
46308;SDS011;32037;50.820;6.494;2023-06-10T11:29:55;8.90;;;8.20;;
46308;SDS011;32037;50.820;6.494;2023-06-10T11:32:25;8.83;;;8.13;;
46308;SDS011;32037;50.820;6.494;2023-06-10T11:34:58;8.57;;;7.80;;
46308;SDS011;32037;50.820;6.494;2023-06-10T11:37:27;8.60;;;7.90;;
46308;SDS011;32037;50.820;6.494;2023-06-10T11:39:57;9.17;;;8.47;;
46308;SDS011;32037;50.820;6.494;2023-06-10T11:42:27;8.30;;;7.70;;
46308;SDS011;32037;50.820;6.494;2023-06-10T11:44:56;9.60;;;8.80;;
46308;SDS011;32037;50.820;6.494;2023-06-10T11:47:27;8.70;;;8.10;;
46308;SDS011;32037;50.820;6.494;2023-06-10T11:49:56;9.17;;;8.17;;
46308;SDS011;32037;50.820;6.494;2023-06-10T11:52:28;8.90;;;8.20;;
46308;SDS011;32037;50.820;6.494;2023-06-10T11:55:00;8.90;;;8.20;;
46308;SDS011;32037;50.820;6.494;2023-06-10T11:57:29;8.50;;;7.80;;
46308;SDS011;32037;50.820;6.494;2023-06-10T11:59:59;8.60;;;8.00;;
46308;SDS011;32037;50.820;6.494;2023-06-10T12:02:36;8.70;;;7.73;;
46308;SDS011;32037;50.820;6.494;2023-06-10T12:05:11;8.17;;;7.50;;
46308;SDS011;32037;50.820;6.494;2023-06-10T12:07:40;8.87;;;8.00;;
46308;SDS011;32037;50.820;6.494;2023-06-10T12:10:10;8.50;;;7.80;;
46308;SDS011;32037;50.820;6.494;2023-06-10T12:12:52;8.50;;;7.80;;
46308;SDS011;32037;50.820;6.494;2023-06-10T12:15:24;8.00;;;7.40;;
46308;SDS011;32037;50.820;6.494;2023-06-10T12:17:53;10.93;;;8.40;;
46308;SDS011;32037;50.820;6.494;2023-06-10T12:20:27;8.10;;;7.50;;
46308;SDS011;32037;50.820;6.494;2023-06-10T12:22:56;9.17;;;8.03;;
46308;SDS011;32037;50.820;6.494;2023-06-10T12:25:26;8.50;;;7.80;;
46308;SDS011;32037;50.820;6.494;2023-06-10T12:27:57;9.67;;;8.87;;
46308;SDS011;32037;50.820;6.494;2023-06-10T12:30:26;8.17;;;7.57;;
46308;SDS011;32037;50.820;6.494;2023-06-10T12:32:55;9.07;;;8.17;;
46308;SDS011;32037;50.820;6.494;2023-06-10T12:35:24;8.77;;;8.07;;
46308;SDS011;32037;50.820;6.494;2023-06-10T12:37:55;9.20;;;8.40;;
46308;SDS011;32037;50.820;6.494;2023-06-10T12:40:27;8.87;;;8.17;;
46308;SDS011;32037;50.820;6.494;2023-06-10T12:42:58;8.77;;;8.07;;
46308;SDS011;32037;50.820;6.494;2023-06-10T12:45:27;11.93;;;9.73;;
46308;SDS011;32037;50.820;6.494;2023-06-10T12:48:07;8.70;;;8.10;;
46308;SDS011;32037;50.820;6.494;2023-06-10T12:50:37;9.00;;;8.20;;
46308;SDS011;32037;50.820;6.494;2023-06-10T12:53:07;8.73;;;8.00;;
46308;SDS011;32037;50.820;6.494;2023-06-10T12:55:37;9.10;;;8.20;;
46308;SDS011;32037;50.820;6.494;2023-06-10T12:58:06;8.97;;;8.27;;
46308;SDS011;32037;50.820;6.494;2023-06-10T13:00:34;9.03;;;8.10;;
46308;SDS011;32037;50.820;6.494;2023-06-10T13:03:03;9.17;;;8.47;;
46308;SDS011;32037;50.820;6.494;2023-06-10T13:05:34;8.83;;;8.23;;
46308;SDS011;32037;50.820;6.494;2023-06-10T13:08:04;7.87;;;7.27;;
46308;SDS011;32037;50.820;6.494;2023-06-10T13:10:33;9.60;;;8.80;;
46308;SDS011;32037;50.820;6.494;2023-06-10T13:13:03;9.33;;;8.60;;
46308;SDS011;32037;50.820;6.494;2023-06-10T13:15:34;8.43;;;7.73;;
46308;SDS011;32037;50.820;6.494;2023-06-10T13:18:08;8.20;;;7.40;;
46308;SDS011;32037;50.820;6.494;2023-06-10T13:20:37;7.50;;;7.00;;
46308;SDS011;32037;50.820;6.494;2023-06-10T13:23:06;8.20;;;7.60;;
46308;SDS011;32037;50.820;6.494;2023-06-10T13:25:35;8.10;;;7.60;;
46308;SDS011;32037;50.820;6.494;2023-06-10T13:28:04;8.07;;;7.37;;
46308;SDS011;32037;50.820;6.494;2023-06-10T13:30:33;7.67;;;7.07;;
46308;SDS011;32037;50.820;6.494;2023-06-10T13:33:02;8.10;;;7.40;;
46308;SDS011;32037;50.820;6.494;2023-06-10T13:35:31;8.90;;;8.30;;
46308;SDS011;32037;50.820;6.494;2023-06-10T13:37:59;8.73;;;8.10;;
46308;SDS011;32037;50.820;6.494;2023-06-10T13:40:28;9.40;;;8.50;;
46308;SDS011;32037;50.820;6.494;2023-06-10T13:42:56;8.20;;;7.63;;
46308;SDS011;32037;50.820;6.494;2023-06-10T13:45:26;9.73;;;8.83;;
46308;SDS011;32037;50.820;6.494;2023-06-10T13:47:55;9.20;;;8.40;;
46308;SDS011;32037;50.820;6.494;2023-06-10T13:50:25;10.20;;;9.50;;
46308;SDS011;32037;50.820;6.494;2023-06-10T13:52:54;8.80;;;8.30;;
46308;SDS011;32037;50.820;6.494;2023-06-10T13:55:22;9.83;;;8.93;;
46308;SDS011;32037;50.820;6.494;2023-06-10T13:57:51;8.93;;;8.17;;
46308;SDS011;32037;50.820;6.494;2023-06-10T14:00:19;9.10;;;8.40;;
46308;SDS011;32037;50.820;6.494;2023-06-10T14:02:49;7.63;;;7.03;;
46308;SDS011;32037;50.820;6.494;2023-06-10T14:05:18;8.80;;;8.10;;
46308;SDS011;32037;50.820;6.494;2023-06-10T14:07:46;8.83;;;8.13;;
46308;SDS011;32037;50.820;6.494;2023-06-10T14:10:15;9.00;;;8.30;;
46308;SDS011;32037;50.820;6.494;2023-06-10T14:12:43;9.23;;;8.50;;
46308;SDS011;32037;50.820;6.494;2023-06-10T14:15:12;8.77;;;8.17;;
46308;SDS011;32037;50.820;6.494;2023-06-10T14:17:40;9.13;;;8.43;;
46308;SDS011;32037;50.820;6.494;2023-06-10T14:20:11;9.97;;;7.60;;
46308;SDS011;32037;50.820;6.494;2023-06-10T14:22:40;9.20;;;8.50;;
46308;SDS011;32037;50.820;6.494;2023-06-10T14:25:09;8.30;;;7.70;;
46308;SDS011;32037;50.820;6.494;2023-06-10T14:27:38;8.80;;;8.10;;
46308;SDS011;32037;50.820;6.494;2023-06-10T14:30:07;7.07;;;6.53;;
46308;SDS011;32037;50.820;6.494;2023-06-10T14:32:37;8.20;;;7.60;;
46308;SDS011;32037;50.820;6.494;2023-06-10T14:35:06;7.83;;;7.33;;
46308;SDS011;32037;50.820;6.494;2023-06-10T14:37:36;8.43;;;7.70;;
46308;SDS011;32037;50.820;6.494;2023-06-10T14:40:05;8.90;;;8.30;;
46308;SDS011;32037;50.820;6.494;2023-06-10T14:42:34;7.90;;;7.40;;
46308;SDS011;32037;50.820;6.494;2023-06-10T14:45:03;8.70;;;8.10;;
46308;SDS011;32037;50.820;6.494;2023-06-10T14:47:33;7.23;;;6.73;;
46308;SDS011;32037;50.820;6.494;2023-06-10T14:50:01;8.23;;;7.70;;
46308;SDS011;32037;50.820;6.494;2023-06-10T14:52:30;7.73;;;7.13;;
46308;SDS011;32037;50.820;6.494;2023-06-10T14:55:00;7.93;;;7.40;;
46308;SDS011;32037;50.820;6.494;2023-06-10T14:57:28;7.60;;;7.03;;
46308;SDS011;32037;50.820;6.494;2023-06-10T15:00:00;8.03;;;7.43;;
46308;SDS011;32037;50.820;6.494;2023-06-10T15:02:29;6.97;;;6.47;;
46308;SDS011;32037;50.820;6.494;2023-06-10T15:04:57;7.87;;;7.27;;